Flight Track Log - Related Links

Times and Time Zones

All times are in EST time to prevent confusion due to time zone crossing. See the UAL1054 flight status page for this flight to view local times or setup timezone preferences in your user account.

Time Position Orientation Groundspeed Altitude Reporting Facility
EST Latitude Longitude Course Direction KTS MPH feet Rate Location/Type
Fri 01:40:18 PM 40.6833 -74.1833 316° Northwest 140 161 400  Level New York TRACON
Fri 01:41:18 PM 40.6333 -74.1833 180° South 206 237 2,400 2,000 Climbing New York TRACON
Fri 01:42:18 PM 40.6000 -74.2500 237° Southwest 253 291 4,400 1,583 Climbing New York TRACON
Fri 01:43:00 PM 40.9106 -74.4183 316° Northwest  Level FlightAware Approximate
Fri 01:44:00 PM 40.9829 -74.5113 316° Northwest  Level FlightAware Approximate
Fri 01:48:30 PM 41.0580 -74.5084 237° Southwest 334 384 13,800  Level FlightAware ADS-B (KWWD)
Fri 01:50:10 PM 41.1356 -74.6885 300° West 331 381 17,400 2,217 Climbing FlightAware ADS-B (KWWD)
Fri 01:50:48 PM 41.1637 -74.7539 300° West 331 381 18,900 2,058 Climbing FlightAware ADS-B (KWWD)
Fri 01:52:27 PM 41.2411 -74.9331 300° West 354 407 22,100 2,000 Climbing FlightAware ADS-B (KWWD)
Fri 01:53:09 PM 41.2777 -75.0181 300° West 359 413 23,600 1,820 Climbing FlightAware ADS-B (KWWD)
Fri 01:53:56 PM 41.3172 -75.1133 300° West 348 400 24,800 1,444 Climbing New York Center
Fri 01:57:35 PM 41.4899 -75.5415 300° West 371 427 30,000 1,114 Climbing FlightAware ADS-B (KWWD)
Fri 01:58:36 PM 41.5311 -75.6767 300° West 367 422 30,000  Level Cleveland Center
Fri 01:59:38 PM 41.5675 -75.8036 291° West 366 421 30,000  Level Cleveland Center
Fri 02:00:41 PM 41.6047 -75.9331 291° West 370 426 30,000  Level Cleveland Center
Fri 02:01:43 PM 41.6406 -76.0625 290° West 371 427 30,000  Level Cleveland Center
Fri 02:02:45 PM 41.6808 -76.2067 291° West 374 430 30,000  Level Cleveland Center
Fri 02:03:47 PM 41.7175 -76.3361 291° West 374 430 30,000 -1,626 Level Cleveland Center
Fri 02:06:19 PM 41.7952 -76.6516 291° West 382 440 24,200  Descending FlightAware ADS-B (KWWD)
Fri 02:06:53 PM 41.8267 -76.7294 291° West 376 433 30,000 3,625 Climbing Cleveland Center
Fri 02:07:55 PM 41.8706 -76.8892 290° West 376 433 30,000  Level Cleveland Center
Fri 02:08:57 PM 41.9069 -77.0217 290° West 378 435 30,000  Level Cleveland Center
Fri 02:09:59 PM 41.9425 -77.1553 290° West 378 435 30,000  Level Cleveland Center
Fri 02:11:01 PM 41.9775 -77.2883 290° West 378 435 30,000  Level Cleveland Center
Fri 02:12:03 PM 42.0144 -77.4233 290° West 379 436 30,000  Level Cleveland Center
Fri 02:13:06 PM 42.0500 -77.5553 290° West 378 435 30,000  Level Cleveland Center
Fri 02:14:08 PM 42.0942 -77.7150 290° West 378 435 30,000  Level Cleveland Center
Fri 02:15:10 PM 42.1286 -77.8472 289° West 377 434 30,000  Level Cleveland Center
Fri 02:16:12 PM 42.1647 -77.9806 290° West 377 434 30,000  Level Cleveland Center
Fri 02:17:14 PM 42.1997 -78.1114 290° West 374 430 30,000  Level Cleveland Center
Fri 02:18:16 PM 42.2342 -78.2436 289° West 374 430 30,000  Level Cleveland Center
Fri 02:24:01 PM 42.4081 -79.0300 289° West 373 429 30,000  Level FlightAware ADS-B
Fri 02:24:57 PM 42.4385 -79.1542 288° West 371 427 30,000  Level FlightAware ADS-B
Fri 02:25:39 PM 42.4605 -79.2449 288° West 370 426 30,000  Level FlightAware ADS-B
Fri 02:26:21 PM 42.4819 -79.3331 288° West 370 426 30,000  Level FlightAware ADS-B
Fri 02:27:00 PM 42.5037 -79.4232 288° West 370 426 30,000  Level FlightAware ADS-B
Fri 02:27:41 PM 42.5229 -79.5033 288° West 369 425 30,000  Level FlightAware ADS-B
Fri 02:28:40 PM 42.5569 -79.6450 288° West 371 427 30,000  Level FlightAware ADS-B
Fri 02:29:21 PM 42.5786 -79.7350 288° West 370 426 30,000  Level FlightAware ADS-B
Fri 02:32:49 PM 42.6098 -80.1485 276° West 360 414 30,000  Level FlightAware ADS-B (CYKF)
Fri 02:34:23 PM 42.6178 -80.3269 274° West 359 413 30,000  Level FlightAware ADS-B (CYKF)
Fri 02:34:53 PM 42.6245 -80.4779 273° West 359 413 30,000  Level FlightAware ADS-B (CYKF)
Fri 02:35:58 PM 42.6306 -80.6255 273° West 360 414 30,000  Level FlightAware ADS-B (CYKF)
Fri 02:36:50 PM 42.6309 -80.6386 272° West 358 412 30,000  Level FlightAware ADS-B (CYKF)
Fri 02:38:54 PM 42.6309 -80.6386 272° West 357 411 30,000 81 Level FlightAware ADS-B (CYKF)
Fri 02:40:32 PM 42.6522 -81.2247 273° West 335 386 30,300 526 Climbing FlightAware ADS-B (CYKF)
Fri 02:41:11 PM 42.6585 -81.3163 275° West 336 387 31,200 1,085 Climbing FlightAware ADS-B (CYKF)
Fri 02:42:06 PM 42.6720 -81.4275 279° West 351 404 32,000 390 Climbing FlightAware ADS-B (CYKF)
Fri 02:43:14 PM 42.6894 -81.5713 279° West 318 366 32,000  Level FlightAware ADS-B (CYKF)
Fri 02:44:09 PM 42.7114 -81.6650 279° West 324 373 32,000  Level Cleveland Center
Fri 02:45:11 PM 42.7256 -81.7875 279° West 326 375 32,000 774 Level Cleveland Center
Fri 02:46:13 PM 42.7372 -81.9006 278° West 329 379 33,600 968 Climbing Cleveland Center
Fri 02:47:15 PM 42.7542 -82.0422 279° West 317 365 34,000 194 Climbing Cleveland Center
Fri 02:48:17 PM 42.7653 -82.1606 277° West 316 364 34,000 720 Level Cleveland Center
Fri 02:49:20 PM 42.7789 -82.2739 279° West 310 357 35,500 960 Climbing Cleveland Center
Fri 02:50:22 PM 42.7903 -82.3800 278° West 290 334 36,000 242 Climbing Cleveland Center
Fri 02:51:24 PM 42.8017 -82.4878 278° West 286 329 36,000  Level Cleveland Center
Fri 02:52:26 PM 42.8172 -82.6206 279° West 295 339 36,000  Level Cleveland Center
Fri 02:53:28 PM 42.8336 -82.7333 281° West 301 346 36,000  Level Cleveland Center
Fri 02:54:30 PM 42.8486 -82.8450 280° West 304 350 36,000  Level Cleveland Center
Fri 02:55:32 PM 42.8633 -82.9597 280° West 305 351 36,000  Level Cleveland Center
Fri 02:56:35 PM 42.8794 -83.0742 281° West 306 352 36,000  Level Cleveland Center
Fri 02:57:37 PM 42.8981 -83.2111 281° West 307 353 36,000  Level Cleveland Center
Fri 02:58:39 PM 42.9114 -83.3250 279° West 307 353 36,000  Level Cleveland Center
Fri 02:59:41 PM 42.9272 -83.4375 281° West 307 353 36,000  Level Cleveland Center
Fri 03:00:43 PM 42.9417 -83.5511 280° West 307 353 36,000  Level Cleveland Center
Fri 03:01:45 PM 42.9561 -83.6658 280° West 307 353 36,000  Level Cleveland Center
Fri 03:02:47 PM 42.9697 -83.8003 278° West 304 350 36,000  Level Cleveland Center
Fri 03:03:50 PM 42.9750 -83.9144 274° West 302 348 36,000  Level Cleveland Center
Fri 03:04:52 PM 42.9800 -84.0272 274° West 302 348 36,000  Level Cleveland Center
Fri 03:05:54 PM 42.9867 -84.1397 275° West 301 346 36,000  Level Cleveland Center
Fri 03:11:26 PM 43.0101 -84.7695 275° West 300 345 36,000  Level FlightAware ADS-B
Fri 03:12:55 PM 43.0166 -84.9334 273° West 302 348 36,000  Level FlightAware ADS-B
Fri 03:14:19 PM 43.0221 -85.0800 273° West 303 349 36,000  Level FlightAware ADS-B
Fri 03:18:00 PM 43.0372 -85.5188 273° West 302 348 36,000  Level FlightAware ADS-B
Fri 03:18:46 PM 43.0396 -85.5921 273° West 302 348 36,000  Level FlightAware ADS-B
Fri 03:19:27 PM 43.0425 -85.6839 273° West 302 348 36,000  Level FlightAware ADS-B
Fri 03:20:27 PM 43.0460 -85.7979 272° West 302 348 36,000  Level FlightAware ADS-B
Fri 03:21:07 PM 43.0480 -85.8707 272° West 303 349 36,000  Level FlightAware ADS-B
Fri 03:21:38 PM 43.0497 -85.9311 272° West 303 349 36,000  Level FlightAware ADS-B
Fri 03:22:27 PM 43.0522 -86.0164 272° West 304 350 36,000  Level FlightAware ADS-B
Fri 03:23:07 PM 43.0546 -86.1034 272° West 305 351 36,000  Level FlightAware ADS-B
Fri 03:23:46 PM 43.0564 -86.1781 272° West 306 352 36,000  Level FlightAware ADS-B
Fri 03:24:27 PM 43.0582 -86.2394 272° West 307 353 36,000  Level FlightAware ADS-B
Fri 03:25:07 PM 43.0604 -86.3319 272° West 308 354 36,000  Level FlightAware ADS-B
Fri 03:25:47 PM 43.0625 -86.4136 272° West 309 356 36,000  Level FlightAware ADS-B
Fri 03:26:27 PM 43.0643 -86.4911 272° West 309 356 36,000  Level FlightAware ADS-B
Fri 03:27:07 PM 43.0661 -86.5690 272° West 310 357 36,000  Level FlightAware ADS-B
Fri 03:27:47 PM 43.0680 -86.6456 272° West 310 357 36,000  Level FlightAware ADS-B
Fri 03:28:27 PM 43.0697 -86.7216 272° West 310 357 36,000  Level FlightAware ADS-B
Fri 03:29:07 PM 43.0714 -86.8036 272° West 310 357 36,000  Level FlightAware ADS-B
Fri 03:29:47 PM 43.0731 -86.8816 272° West 311 358 36,000  Level FlightAware ADS-B
Fri 03:30:20 PM 43.0745 -86.9465 272° West 312 359 36,000  Level FlightAware ADS-B (CYQU)
Fri 03:30:55 PM 43.0758 -87.0138 272° West 313 360 36,000  Level FlightAware ADS-B (CYQU)
Fri 03:31:27 PM 43.0771 -87.0769 272° West 313 360 36,000  Level FlightAware ADS-B
Fri 03:32:00 PM 43.0784 -87.1436 272° West 313 360 36,000  Level FlightAware ADS-B (CYQU)
Fri 03:32:46 PM 43.0801 -87.2312 272° West 314 361 36,000  Level FlightAware ADS-B (CYQU)
Fri 03:33:27 PM 43.0815 -87.3113 271° West 314 361 36,000  Level FlightAware ADS-B
Fri 03:34:05 PM 43.0826 -87.3695 271° West 315 362 36,000  Level FlightAware ADS-B (CYQU)
Fri 03:34:37 PM 43.0841 -87.4550 271° West 316 364 36,000  Level FlightAware ADS-B
Fri 03:35:16 PM 43.0854 -87.5313 271° West 316 364 36,000  Level FlightAware ADS-B
Fri 03:35:57 PM 43.0868 -87.6139 271° West 317 365 36,000  Level FlightAware ADS-B
Fri 03:36:37 PM 43.0882 -87.6944 271° West 318 366 36,000  Level FlightAware ADS-B
Fri 03:37:07 PM 43.0892 -87.7562 271° West 318 366 36,000  Level FlightAware ADS-B (CYQU)
Fri 03:37:37 PM 43.0901 -87.8148 271° West 318 366 36,000  Level FlightAware ADS-B
Fri 03:38:15 PM 43.0906 -87.8480 271° West 318 366 36,000  Level FlightAware ADS-B (CYQU)
Fri 03:39:14 PM 43.0930 -88.0077 271° West 318 366 36,000  Level FlightAware ADS-B (KMSN)
Fri 03:39:50 PM 43.0942 -88.0818 271° West 318 366 36,000  Level FlightAware ADS-B (CYQU)
Fri 03:40:32 PM 43.0954 -88.1661 271° West 318 366 36,000  Level FlightAware ADS-B (KMSN)
Fri 03:41:03 PM 43.0963 -88.2287 271° West 317 365 36,000  Level FlightAware ADS-B (CYQU)
Fri 03:41:33 PM 43.0970 -88.2880 271° West 317 365 36,000  Level FlightAware ADS-B (CYQU)
Fri 03:42:14 PM 43.0956 -88.3685 269° West 314 361 36,000  Level FlightAware ADS-B (CYQU)
Fri 03:42:47 PM 43.0942 -88.4331 268° West 314 361 36,000  Level FlightAware ADS-B (CYQU)
Fri 03:43:17 PM 43.0932 -88.4913 269° West 315 362 36,000  Level FlightAware ADS-B (CYQU)
Fri 03:43:55 PM 43.0920 -88.5699 269° West 315 362 36,000  Level FlightAware ADS-B (KMSN)
Fri 03:44:36 PM 43.0915 -88.6001 269° West 315 362 36,000  Level FlightAware ADS-B (KMSN)
Fri 03:45:11 PM 43.0894 -88.7180 269° West 315 362 36,000  Level FlightAware ADS-B (CYQU)
Fri 03:45:34 PM 43.0896 -88.7122 88° East 315 362 36,000  Level FlightAware ADS-B
Fri 03:46:08 PM 43.0872 -88.8354 269° West 315 362 36,000  Level FlightAware ADS-B (CYQU)
Fri 03:46:41 PM 43.0860 -88.8988 268° West 316 364 36,000  Level FlightAware ADS-B
Fri 03:47:18 PM 43.0848 -88.9666 269° West 317 365 36,000  Level FlightAware ADS-B (KMSN)
Fri 03:47:52 PM 43.0839 -89.0045 268° West 316 364 36,000  Level FlightAware ADS-B (CYQU)
Fri 03:48:38 PM 43.0813 -89.1323 268° West 317 365 36,000  Level FlightAware ADS-B (KMSN)
Fri 03:49:17 PM 43.0798 -89.2075 268° West 318 366 36,000  Level FlightAware ADS-B (KMSN)
Fri 03:49:59 PM 43.0781 -89.2903 268° West 318 366 36,000  Level FlightAware ADS-B (KMSN)
Fri 03:50:38 PM 43.0762 -89.3729 268° West 318 366 36,000  Level FlightAware ADS-B (KMSN)
Fri 03:51:19 PM 43.0743 -89.4545 268° West 319 367 36,000  Level FlightAware ADS-B (KMSN)
Fri 03:51:58 PM 43.0728 -89.5252 268° West 320 368 36,000  Level FlightAware ADS-B (KMSN)
Fri 03:52:34 PM 43.0710 -89.5963 268° West 320 368 36,000  Level FlightAware ADS-B (KMSN)
Fri 03:53:19 PM 43.0703 -89.6292 268° West 320 368 36,000  Level FlightAware ADS-B (KMSN)
Fri 03:53:56 PM 43.0686 -89.6994 268° West 320 368 36,000  Level FlightAware ADS-B (KMSN)
Fri 03:54:32 PM 43.0686 -89.6994 268° West 319 367 36,000  Level FlightAware ADS-B (KMSN)
Fri 03:55:17 PM 43.0628 -89.9322 268° West 318 366 36,000  Level FlightAware ADS-B (KMSN)
Fri 03:55:51 PM 43.0611 -89.9973 268° West 318 366 36,000  Level FlightAware ADS-B
Fri 03:56:34 PM 43.0585 -90.0891 268° West 319 367 36,000  Level FlightAware ADS-B
Fri 03:57:44 PM 43.0582 -90.1049 268° West 321 369 36,000  Level FlightAware ADS-B
Fri 03:59:53 PM 43.0582 -90.1049 268° West 320 368 36,000  Level FlightAware ADS-B
Fri 04:01:34 PM 43.0408 -90.6918 268° West 321 369 36,000  Level FlightAware ADS-B
Fri 04:03:31 PM 43.0331 -90.9249 267° West 323 372 36,000  Level FlightAware ADS-B (LPVM)
Fri 04:04:13 PM 43.0298 -91.0193 267° West 323 372 36,000  Level FlightAware ADS-B (LPVM)
Fri 04:05:09 PM 43.0257 -91.1314 267° West 323 372 36,000  Level FlightAware ADS-B (LPVM)
Fri 04:06:12 PM 43.0209 -91.2634 267° West 324 373 36,000  Level FlightAware ADS-B (LPVM)
Fri 04:07:50 PM 43.0175 -91.3544 267° West 324 373 36,000  Level FlightAware ADS-B (LPVM)
Fri 04:08:52 PM 43.0087 -91.5738 267° West 325 374 36,000  Level FlightAware ADS-B (LPVM)
Fri 04:09:23 PM 43.0057 -91.6517 267° West 325 374 36,000  Level FlightAware ADS-B (LPVM)
Fri 04:10:12 PM 43.0017 -91.7431 267° West 325 374 36,000  Level FlightAware ADS-B (LPVM)
Fri 04:10:48 PM 42.9991 -91.8031 267° West 324 373 36,000  Level FlightAware ADS-B (LPVM)
Fri 04:11:25 PM 42.9947 -91.9015 266° West 324 373 36,000  Level FlightAware ADS-B (LPVM)
Fri 04:12:03 PM 42.9916 -91.9707 266° West 325 374 36,000  Level FlightAware ADS-B (LPVM)
Fri 04:12:54 PM 42.9866 -92.0817 267° West 326 375 36,000  Level FlightAware ADS-B (LPVM)
Fri 04:13:25 PM 42.9835 -92.1459 266° West 325 374 36,000  Level FlightAware ADS-B (LPVM)
Fri 04:14:53 PM 42.9749 -92.3209 266° West 326 375 36,000  Level FlightAware ADS-B (LPVM)
Fri 04:17:31 PM 42.9581 -92.6489 266° West 326 375 36,000  Level FlightAware ADS-B (LPVM)
Fri 04:23:12 PM 42.9171 -93.3538 266° West 331 381 36,000  Level FlightAware ADS-B (LPVM)
Fri 04:27:04 PM 42.8877 -93.8040 265° West 338 389 36,000  Level FlightAware ADS-B (LPVM)
Fri 04:28:22 PM 42.8740 -94.0052 265° West 341 392 36,000  Level FlightAware ADS-B (LPVM)
Fri 04:30:23 PM 42.8554 -94.2656 265° West 344 396 36,000  Level FlightAware ADS-B (LPVM)
Fri 04:31:04 PM 42.8489 -94.3530 264° West 345 397 36,000  Level FlightAware ADS-B (LPVM)
Fri 04:31:31 PM 42.8448 -94.4096 264° West 346 398 36,000  Level FlightAware ADS-B
Fri 04:31:40 PM 42.8432 -94.4311 264° West 346 398 36,000  Level FlightAware ADS-B (LPVM)
Fri 04:32:06 PM 42.8393 -94.4838 264° West 345 397 36,000  Level FlightAware ADS-B
Fri 04:32:36 PM 42.8343 -94.5494 264° West 346 398 36,000  Level FlightAware ADS-B
Fri 04:33:07 PM 42.8293 -94.6146 264° West 346 398 36,000  Level FlightAware ADS-B
Fri 04:33:38 PM 42.8242 -94.6826 264° West 347 399 36,000  Level FlightAware ADS-B
Fri 04:34:08 PM 42.8190 -94.7485 264° West 348 400 36,000  Level FlightAware ADS-B
Fri 04:34:41 PM 42.8135 -94.8208 264° West 349 402 36,000  Level FlightAware ADS-B
Fri 04:34:42 PM 42.8140 -94.8129 85° East 348 400 36,000  Level FlightAware ADS-B (LPVM)
Fri 04:35:12 PM 42.8082 -94.8874 264° West 349 402 36,000  Level FlightAware ADS-B
Fri 04:35:43 PM 42.8029 -94.9538 264° West 351 404 36,000  Level FlightAware ADS-B
Fri 04:36:13 PM 42.7976 -95.0196 264° West 351 404 36,000  Level FlightAware ADS-B
Fri 04:36:43 PM 42.7924 -95.0856 264° West 351 404 36,000  Level FlightAware ADS-B
Fri 04:37:14 PM 42.7869 -95.1536 264° West 352 405 36,000  Level FlightAware ADS-B
Fri 04:37:22 PM 42.7851 -95.1758 264° West 352 405 36,000  Level FlightAware ADS-B (LPVM)
Fri 04:37:44 PM 42.7814 -95.2197 264° West 352 405 36,000  Level FlightAware ADS-B
Fri 04:37:56 PM 42.7797 -95.2403 264° West 352 405 36,000  Level FlightAware ADS-B (LPVM)
Fri 04:38:14 PM 42.7760 -95.2865 264° West 353 406 36,000  Level FlightAware ADS-B
Fri 04:38:44 PM 42.7705 -95.3531 264° West 354 407 36,000  Level FlightAware ADS-B
Fri 04:39:15 PM 42.7648 -95.4197 263° West 354 407 36,000  Level FlightAware ADS-B
Fri 04:39:45 PM 42.7592 -95.4870 264° West 355 409 36,000  Level FlightAware ADS-B
Fri 04:40:23 PM 42.7521 -95.5709 263° West 356 410 36,000  Level FlightAware ADS-B
Fri 04:40:53 PM 42.7465 -95.6375 263° West 356 410 36,000  Level FlightAware ADS-B
Fri 04:41:24 PM 42.7404 -95.7072 263° West 357 411 36,000  Level FlightAware ADS-B
Fri 04:41:54 PM 42.7346 -95.7747 263° West 359 413 36,000  Level FlightAware ADS-B
Fri 04:42:21 PM 42.7294 -95.8334 263° West 360 414 36,000  Level FlightAware ADS-B
Fri 04:42:51 PM 42.7233 -95.9027 263° West 360 414 36,000  Level FlightAware ADS-B
Fri 04:43:22 PM 42.7173 -95.9706 263° West 361 415 36,000  Level FlightAware ADS-B
Fri 04:43:52 PM 42.7112 -96.0387 263° West 361 415 36,000 194 Level FlightAware ADS-B
Fri 04:44:24 PM 42.7049 -96.1105 263° West 359 413 36,200 762 Climbing FlightAware ADS-B
Fri 04:44:55 PM 42.6987 -96.1782 263° West 359 413 36,800 1,082 Climbing FlightAware ADS-B
Fri 04:45:25 PM 42.6927 -96.2457 263° West 361 415 37,300 1,200 Climbing FlightAware ADS-B
Fri 04:45:55 PM 42.6865 -96.3127 263° West 357 411 38,000 400 Climbing FlightAware ADS-B
Fri 04:47:10 PM 42.6714 -96.4763 263° West 348 400 38,000  Level FlightAware ADS-B
Fri 04:47:47 PM 42.6641 -96.5564 263° West 351 404 38,000  Level FlightAware ADS-B
Fri 04:48:17 PM 42.6577 -96.6234 263° West 354 407 38,000  Level FlightAware ADS-B
Fri 04:48:47 PM 42.6515 -96.6898 263° West 355 409 38,000  Level FlightAware ADS-B
Fri 04:49:50 PM 42.6383 -96.8290 263° West 356 410 38,000  Level FlightAware ADS-B
Fri 04:50:20 PM 42.6319 -96.8960 263° West 360 414 38,000  Level FlightAware ADS-B
Fri 04:50:51 PM 42.6252 -96.9650 263° West 361 415 38,000  Level FlightAware ADS-B
Fri 04:51:23 PM 42.6184 -97.0374 263° West 363 418 38,000  Level FlightAware ADS-B
Fri 04:51:54 PM 42.6117 -97.1059 262° West 364 419 38,000  Level FlightAware ADS-B
Fri 04:52:23 PM 42.6053 -97.1718 263° West 365 420 38,000  Level FlightAware ADS-B
Fri 04:52:54 PM 42.5985 -97.2431 263° West 366 421 38,000  Level FlightAware ADS-B
Fri 04:53:25 PM 42.5916 -97.3131 262° West 367 422 38,000  Level FlightAware ADS-B
Fri 04:53:55 PM 42.5847 -97.3818 262° West 367 422 38,000  Level FlightAware ADS-B
Fri 04:54:25 PM 42.5778 -97.4506 262° West 368 423 38,000  Level FlightAware ADS-B
Fri 04:54:56 PM 42.5710 -97.5205 262° West 368 423 38,000  Level FlightAware ADS-B
Fri 04:55:27 PM 42.5641 -97.5898 262° West 368 423 38,000  Level FlightAware ADS-B
Fri 04:56:21 PM 42.5514 -97.7148 262° West 369 425 38,000  Level FlightAware ADS-B
Fri 04:56:51 PM 42.5444 -97.7841 262° West 372 428 38,000  Level FlightAware ADS-B
Fri 04:57:21 PM 42.5375 -97.8532 262° West 372 428 38,000  Level FlightAware ADS-B
Fri 04:57:52 PM 42.5303 -97.9241 262° West 373 429 38,000  Level FlightAware ADS-B
Fri 04:58:23 PM 42.5231 -97.9941 262° West 373 429 38,000  Level FlightAware ADS-B
Fri 04:58:56 PM 42.5152 -98.0708 262° West 374 430 38,000  Level FlightAware ADS-B
Fri 04:59:26 PM 42.5080 -98.1407 262° West 374 430 38,000  Level FlightAware ADS-B
Fri 05:02:09 PM 42.4682 -98.5206 262° West 378 435 38,000  Level FlightAware ADS-B
Fri 05:02:41 PM 42.4605 -98.5939 262° West 379 436 38,000  Level FlightAware ADS-B
Fri 05:03:03 PM 42.4546 -98.6472 261° West 380 437 38,000  Level FlightAware ADS-B
Fri 05:03:23 PM 42.4464 -98.6922 256° West 379 436 38,000  Level FlightAware ADS-B
Fri 05:03:53 PM 42.4276 -98.7587 249° West 380 437 38,000  Level FlightAware ADS-B
Fri 05:04:24 PM 42.4064 -98.8255 247° West 380 437 38,000  Level FlightAware ADS-B
Fri 05:07:12 PM 42.2898 -99.1916 247° West 380 437 38,000  Level FlightAware ADS-B
Fri 05:07:43 PM 42.2682 -99.2589 247° West 380 437 38,000  Level FlightAware ADS-B
Fri 05:08:13 PM 42.2471 -99.3252 247° West 381 438 38,000  Level FlightAware ADS-B
Fri 05:08:44 PM 42.2254 -99.3926 247° West 382 440 38,000  Level FlightAware ADS-B
Fri 05:09:14 PM 42.2043 -99.4580 246° West 382 440 38,000  Level FlightAware ADS-B
Fri 05:09:45 PM 42.1828 -99.5250 247° West 383 441 38,000  Level FlightAware ADS-B
Fri 05:10:16 PM 42.1611 -99.5923 247° West 384 442 38,000  Level FlightAware ADS-B
Fri 05:10:46 PM 42.1395 -99.6587 246° West 384 442 38,000  Level FlightAware ADS-B
Fri 05:11:22 PM 42.1408 -99.7047 246° West 380 437 38,000  Level Minneapolis Center
Fri 05:12:24 PM 42.0889 -99.8608 246° West 381 438 38,000  Level Minneapolis Center
Fri 05:13:40 PM 42.0325 -100.0272 246° West 389 448 38,000  Level Denver Center
Fri 05:14:42 PM 41.9906 -100.1533 246° West 388 447 38,000  Level Denver Center
Fri 05:20:38 PM 41.7049 -100.9657 246° West 394 453 38,000  Level FlightAware ADS-B (KEIK)
Fri 05:21:13 PM 41.6808 -101.0366 245° Southwest 395 455 38,000  Level FlightAware ADS-B (KEIK)
Fri 05:21:52 PM 41.6483 -101.1308 245° Southwest 395 455 38,000  Level FlightAware ADS-B (KEIK)
Fri 05:22:36 PM 41.6171 -101.2215 245° Southwest 395 455 38,000  Level FlightAware ADS-B (KEIK)
Fri 05:23:17 PM 41.5858 -101.3121 245° Southwest 396 456 38,000  Level FlightAware ADS-B (KEIK)
Fri 05:23:57 PM 41.5578 -101.3924 245° Southwest 396 456 38,000  Level FlightAware ADS-B (KEIK)
Fri 05:24:37 PM 41.5273 -101.4807 245° Southwest 394 453 38,000  Level FlightAware ADS-B (KEIK)
Fri 05:25:17 PM 41.4916 -101.5826 245° Southwest 394 453 38,000  Level FlightAware ADS-B (KEIK)
Fri 05:25:58 PM 41.4608 -101.6704 245° Southwest 394 453 38,000  Level FlightAware ADS-B (KEIK)
Fri 05:26:41 PM 41.4310 -101.7552 245° Southwest 395 455 38,000  Level FlightAware ADS-B (KEIK)
Fri 05:27:24 PM 41.3941 -101.8596 245° Southwest 392 451 38,000  Level FlightAware ADS-B (KEIK)
Fri 05:28:00 PM 41.3685 -101.9318 245° Southwest 391 450 38,000  Level FlightAware ADS-B (KEIK)
Fri 05:28:44 PM 41.3321 -102.0337 245° Southwest 390 449 38,000  Level FlightAware ADS-B (KEIK)
Fri 05:29:30 PM 41.3010 -102.1203 245° Southwest 390 449 38,000  Level FlightAware ADS-B (KEIK)
Fri 05:30:10 PM 41.2655 -102.2195 245° Southwest 390 449 38,000  Level FlightAware ADS-B (KEIK)
Fri 05:30:43 PM 41.2399 -102.2906 244° Southwest 391 450 38,000 269 Level FlightAware ADS-B
Fri 05:31:17 PM 41.2142 -102.3617 244° Southwest 391 450 38,300 761 Climbing FlightAware ADS-B
Fri 05:31:54 PM 41.1850 -102.4422 244° Southwest 391 450 38,900 806 Climbing FlightAware ADS-B (KEIK)
Fri 05:32:24 PM 41.1651 -102.4968 244° Southwest 392 451 39,200 700 Climbing FlightAware ADS-B
Fri 05:32:54 PM 41.1374 -102.5723 244° Southwest 392 451 39,600 787 Climbing FlightAware ADS-B (KEIK)
Fri 05:33:25 PM 41.1182 -102.6248 244° Southwest 391 450 40,000 375 Climbing FlightAware ADS-B
Fri 05:33:58 PM 41.0870 -102.7100 244° Southwest 390 449 40,000  Level FlightAware ADS-B (KEIK)
Fri 05:34:35 PM 41.0580 -102.7890 244° Southwest 388 447 40,000  Level FlightAware ADS-B
Fri 05:35:20 PM 41.0249 -102.8783 244° Southwest 388 447 40,000  Level FlightAware ADS-B
Fri 05:35:50 PM 40.9998 -102.9460 244° Southwest 389 448 40,000  Level FlightAware ADS-B
Fri 05:36:26 PM 40.9718 -103.0211 244° Southwest 390 449 40,000  Level FlightAware ADS-B
Fri 05:36:56 PM 40.9486 -103.0833 244° Southwest 390 449 40,000  Level FlightAware ADS-B
Fri 05:37:31 PM 40.9201 -103.1594 244° Southwest 392 451 40,000  Level FlightAware ADS-B
Fri 05:38:07 PM 40.8892 -103.2415 244° Southwest 392 451 40,000  Level FlightAware ADS-B
Fri 05:38:38 PM 40.8661 -103.3030 244° Southwest 392 451 40,000  Level FlightAware ADS-B
Fri 05:39:21 PM 40.8309 -103.3964 244° Southwest 392 451 40,000  Level FlightAware ADS-B
Fri 05:40:02 PM 40.7962 -103.4878 243° Southwest 393 452 40,000  Level FlightAware ADS-B (KEIK)
Fri 05:40:41 PM 40.7658 -103.5676 243° Southwest 394 453 40,000  Level FlightAware ADS-B
Fri 05:41:12 PM 40.7466 -103.6177 243° Southwest 394 453 40,000  Level FlightAware ADS-B
Fri 05:41:55 PM 40.7038 -103.7295 243° Southwest 395 455 40,000  Level FlightAware ADS-B
Fri 05:42:35 PM 40.6709 -103.8151 243° Southwest 396 456 40,000  Level FlightAware ADS-B
Fri 05:43:07 PM 40.6443 -103.8842 243° Southwest 396 456 40,000  Level FlightAware ADS-B
Fri 05:43:47 PM 40.6127 -103.9666 243° Southwest 396 456 40,000  Level FlightAware ADS-B
Fri 05:44:21 PM 40.5840 -104.0414 243° Southwest 398 458 40,000  Level FlightAware ADS-B
Fri 05:44:53 PM 40.5588 -104.1073 243° Southwest 399 459 40,000  Level FlightAware ADS-B
Fri 05:45:36 PM 40.5248 -104.1953 243° Southwest 400 460 40,000  Level FlightAware ADS-B
Fri 05:46:15 PM 40.4939 -104.2753 243° Southwest 400 460 40,000  Level FlightAware ADS-B
Fri 05:46:57 PM 40.4558 -104.3734 243° Southwest 401 461 40,000  Level FlightAware ADS-B
Fri 05:47:27 PM 40.4294 -104.4413 243° Southwest 401 461 40,000  Level FlightAware ADS-B
Fri 05:47:59 PM 40.4100 -104.4912 243° Southwest 401 461 40,000  Level FlightAware ADS-B (EHEH / EIN)
Fri 05:48:33 PM 40.3736 -104.5837 243° Southwest 399 459 40,000  Level FlightAware ADS-B
Fri 05:49:17 PM 40.3379 -104.6746 243° Southwest 399 459 40,000  Level FlightAware ADS-B
Fri 05:50:00 PM 40.2992 -104.7732 243° Southwest 399 459 40,000  Level FlightAware ADS-B
Fri 05:50:34 PM 40.2735 -104.8383 243° Southwest 399 459 40,000  Level FlightAware ADS-B
Fri 05:51:07 PM 40.2436 -104.9135 243° Southwest 400 460 40,000  Level FlightAware ADS-B
Fri 05:51:47 PM 40.2083 -105.0025 243° Southwest 401 461 40,000  Level FlightAware ADS-B
Fri 05:52:27 PM 40.1744 -105.0872 242° Southwest 403 464 40,000  Level FlightAware ADS-B
Fri 05:52:57 PM 40.1514 -105.1448 242° Southwest 404 465 40,000  Level FlightAware ADS-B
Fri 05:53:29 PM 40.1447 -105.1613 242° Southwest 405 466 40,000  Level FlightAware ADS-B
Fri 05:54:18 PM 40.1439 -105.1634 241° Southwest 408 470 40,000  Level FlightAware ADS-B
Fri 05:55:18 PM 40.0270 -105.4541 242° Southwest 410 472 40,000  Level FlightAware ADS-B
Fri 05:55:54 PM 39.9942 -105.5350 242° Southwest 412 474 40,000  Level FlightAware ADS-B
Fri 05:56:27 PM 39.9645 -105.6086 242° Southwest 412 474 40,000  Level FlightAware ADS-B
Fri 05:57:04 PM 39.9303 -105.6924 242° Southwest 414 476 40,000  Level FlightAware ADS-B
Fri 05:57:39 PM 39.9001 -105.7664 242° Southwest 416 479 40,000  Level FlightAware ADS-B
Fri 05:58:17 PM 39.8653 -105.8519 242° Southwest 416 479 40,000  Level FlightAware ADS-B
Fri 05:58:49 PM 39.8378 -105.9187 242° Southwest 416 479 40,000  Level FlightAware ADS-B
Fri 05:59:29 PM 39.8004 -106.0098 242° Southwest 416 479 40,000  Level FlightAware ADS-B
Fri 06:00:08 PM 39.7643 -106.0974 242° Southwest 414 476 40,000  Level FlightAware ADS-B
Fri 06:00:41 PM 39.7369 -106.1636 242° Southwest 413 475 40,000  Level FlightAware ADS-B
Fri 06:01:12 PM 39.7099 -106.2291 242° Southwest 412 474 40,000  Level FlightAware ADS-B
Fri 06:01:43 PM 39.6806 -106.2998 242° Southwest 411 473 40,000  Level FlightAware ADS-B
Fri 06:02:34 PM 39.6780 -106.3063 243° Southwest 411 473 40,000  Level FlightAware ADS-B
Fri 06:03:10 PM 39.6140 -106.4601 242° Southwest 413 475 40,000  Level FlightAware ADS-B
Fri 06:03:46 PM 39.5692 -106.5674 242° Southwest 414 476 40,000  Level FlightAware ADS-B
Fri 06:04:28 PM 39.5304 -106.6602 242° Southwest 416 479 40,000  Level FlightAware ADS-B (KGUC)
Fri 06:05:08 PM 39.4933 -106.7488 242° Southwest 416 479 40,000  Level FlightAware ADS-B (KGUC)
Fri 06:05:39 PM 39.4653 -106.8156 242° Southwest 418 481 40,000  Level FlightAware ADS-B
Fri 06:06:21 PM 39.4269 -106.9073 242° Southwest 419 482 40,000  Level FlightAware ADS-B
Fri 06:07:04 PM 39.3860 -107.0041 241° Southwest 419 482 40,000  Level FlightAware ADS-B
Fri 06:07:47 PM 39.3482 -107.0933 241° Southwest 420 483 40,000  Level FlightAware ADS-B
Fri 06:08:20 PM 39.3160 -107.1696 241° Southwest 419 482 40,000  Level FlightAware ADS-B (EDXW / GWT)
Fri 06:08:51 PM 39.2871 -107.2375 241° Southwest 419 482 40,000  Level FlightAware ADS-B
Fri 06:09:21 PM 39.2596 -107.3025 241° Southwest 419 482 40,000  Level FlightAware ADS-B (EDXW / GWT)
Fri 06:09:53 PM 39.2305 -107.3709 241° Southwest 418 481 40,000  Level FlightAware ADS-B (EDXW / GWT)
Fri 06:10:28 PM 39.1965 -107.4508 241° Southwest 417 480 40,000  Level FlightAware ADS-B (KGUC)
Fri 06:10:58 PM 39.1695 -107.5141 241° Southwest 415 478 40,000  Level FlightAware ADS-B
Fri 06:11:28 PM 39.1412 -107.5802 241° Southwest 414 476 40,000  Level FlightAware ADS-B (KGUC)
Fri 06:12:01 PM 39.1117 -107.6494 241° Southwest 413 475 40,000  Level FlightAware ADS-B
Fri 06:12:43 PM 39.0731 -107.7390 241° Southwest 412 474 40,000  Level FlightAware ADS-B
Fri 06:13:23 PM 39.0365 -107.8243 241° Southwest 412 474 40,000  Level FlightAware ADS-B
Fri 06:14:04 PM 38.9987 -107.9118 241° Southwest 412 474 40,000  Level FlightAware ADS-B
Fri 06:14:35 PM 38.9704 -107.9777 241° Southwest 411 473 40,000  Level FlightAware ADS-B (EDXW / GWT)
Fri 06:15:05 PM 38.9414 -108.0447 241° Southwest 412 474 40,000  Level FlightAware ADS-B (EDXW / GWT)
Fri 06:15:35 PM 38.9191 -108.0964 241° Southwest 413 475 40,000  Level FlightAware ADS-B (EDXW / GWT)
Fri 06:16:10 PM 38.8811 -108.1836 241° Southwest 414 476 40,000  Level FlightAware ADS-B (KGUC)
Fri 06:16:51 PM 38.8442 -108.2687 241° Southwest 413 475 40,000  Level FlightAware ADS-B (KGUC)
Fri 06:17:30 PM 38.8073 -108.3535 241° Southwest 412 474 40,000  Level FlightAware ADS-B (KGUC)
Fri 06:18:01 PM 38.7802 -108.4155 241° Southwest 412 474 40,000  Level FlightAware ADS-B
Fri 06:18:31 PM 38.7520 -108.4800 241° Southwest 411 473 40,000  Level FlightAware ADS-B (KGUC)
Fri 06:19:01 PM 38.7232 -108.5461 241° Southwest 411 473 40,000  Level FlightAware ADS-B
Fri 06:19:37 PM 38.6899 -108.6218 241° Southwest 411 473 40,000  Level FlightAware ADS-B (EDXW / GWT)
Fri 06:20:11 PM 38.6581 -108.6944 241° Southwest 411 473 40,000  Level FlightAware ADS-B (KGUC)
Fri 06:20:44 PM 38.6295 -108.7595 241° Southwest 411 473 40,000  Level FlightAware ADS-B (EDXW / GWT)
Fri 06:21:33 PM 38.5902 -108.8488 241° Southwest 412 474 40,000  Level FlightAware ADS-B
Fri 06:22:11 PM 38.5467 -108.9471 241° Southwest 411 473 40,000  Level FlightAware ADS-B (KGUC)
Fri 06:22:43 PM 38.5165 -109.0154 241° Southwest 412 474 40,000  Level FlightAware ADS-B
Fri 06:23:20 PM 38.4817 -109.0941 241° Southwest 412 474 40,000  Level FlightAware ADS-B (EDXW / GWT)
Fri 06:23:50 PM 38.4539 -109.1564 240° Southwest 409 471 40,000  Level FlightAware ADS-B (KGUC)
Fri 06:24:21 PM 38.4250 -109.2213 240° Southwest 410 472 40,000  Level FlightAware ADS-B (EDXW / GWT)
Fri 06:25:07 PM 38.3823 -109.3172 240° Southwest 412 474 40,000  Level FlightAware ADS-B
Fri 06:25:47 PM 38.3452 -109.4002 240° Southwest 412 474 40,000  Level FlightAware ADS-B
Fri 06:26:22 PM 38.3116 -109.4755 240° Southwest 413 475 40,000  Level FlightAware ADS-B
Fri 06:27:09 PM 38.2690 -109.5703 240° Southwest 413 475 40,000  Level FlightAware ADS-B
Fri 06:27:49 PM 38.2286 -109.6599 240° Southwest 413 475 40,000  Level FlightAware ADS-B
Fri 06:28:23 PM 38.1978 -109.7283 240° Southwest 413 475 40,000  Level FlightAware ADS-B
Fri 06:28:53 PM 38.1682 -109.7939 240° Southwest 413 475 40,000  Level FlightAware ADS-B
Fri 06:29:23 PM 38.1401 -109.8561 240° Southwest 415 478 40,000  Level FlightAware ADS-B
Fri 06:29:53 PM 38.1119 -109.9184 240° Southwest 415 478 40,000  Level FlightAware ADS-B
Fri 06:30:28 PM 38.0779 -109.9930 240° Southwest 415 478 40,000  Level FlightAware ADS-B
Fri 06:31:10 PM 38.0369 -110.0834 240° Southwest 417 480 40,000  Level FlightAware ADS-B (KGUC)
Fri 06:31:50 PM 37.9986 -110.1673 240° Southwest 417 480 40,000  Level FlightAware ADS-B (KGUC)
Fri 06:32:26 PM 37.9689 -110.2322 240° Southwest 415 478 40,000  Level FlightAware ADS-B (KGUC)
Fri 06:33:08 PM 37.9238 -110.3304 240° Southwest 415 478 40,000  Level FlightAware ADS-B (KGUC)
Fri 06:34:15 PM 37.8630 -110.4677 241° Southwest 413 475 40,000  Level FlightAware ADS-B
Fri 06:34:57 PM 37.8259 -110.5602 243° Southwest 411 473 40,000  Level FlightAware ADS-B
Fri 06:35:39 PM 37.7902 -110.6519 244° Southwest 411 473 40,000  Level FlightAware ADS-B
Fri 06:36:30 PM 37.7490 -110.7573 244° Southwest 413 475 40,000  Level FlightAware ADS-B (KGUC)
Fri 06:37:00 PM 37.7214 -110.8273 244° Southwest 412 474 40,000  Level FlightAware ADS-B (KGUC)
Fri 06:37:45 PM 37.6836 -110.9226 243° Southwest 412 474 40,000  Level FlightAware ADS-B
Fri 06:38:45 PM 37.6326 -111.0500 243° Southwest 412 474 40,000  Level FlightAware ADS-B
Fri 06:39:45 PM 37.5812 -111.1784 243° Southwest 412 474 40,000  Level FlightAware ADS-B
Fri 06:40:48 PM 37.5264 -111.3141 243° Southwest 413 475 40,000  Level FlightAware ADS-B
Fri 06:41:52 PM 37.4733 -111.4448 243° Southwest 414 476 40,000  Level FlightAware ADS-B
Fri 06:42:52 PM 37.4194 -111.5773 243° Southwest 414 476 40,000  Level FlightAware ADS-B
Fri 06:43:52 PM 37.3691 -111.7002 243° Southwest 412 474 40,000  Level FlightAware ADS-B
Fri 06:44:31 PM 37.3326 -111.7892 243° Southwest 407 468 40,000  Level FlightAware ADS-B (EPLL / LCJ)
Fri 06:45:47 PM 37.2658 -111.9507 243° Southwest 407 468 40,000  Level FlightAware ADS-B (EPLL / LCJ)
Fri 06:46:31 PM 37.2279 -112.0418 242° Southwest 405 466 40,000  Level FlightAware ADS-B (EPLL / LCJ)
Fri 06:47:02 PM 37.2014 -112.1055 243° Southwest 408 470 40,000  Level FlightAware ADS-B
Fri 06:47:54 PM 37.1554 -112.2156 242° Southwest 406 467 40,000  Level FlightAware ADS-B (EPLL / LCJ)
Fri 06:48:38 PM 37.1176 -112.3054 242° Southwest 411 473 40,000  Level FlightAware ADS-B (EPLL / LCJ)
Fri 06:49:59 PM 37.0449 -112.4775 242° Southwest 412 474 40,000  Level FlightAware ADS-B (EPLL / LCJ)
Fri 06:50:40 PM 37.0078 -112.5651 242° Southwest 411 473 40,000  Level FlightAware ADS-B (EPLL / LCJ)
Fri 06:51:11 PM 36.9812 -112.6265 242° Southwest 413 475 40,000  Level FlightAware ADS-B
Fri 06:51:44 PM 36.9448 -112.6954 237° Southwest 415 478 40,000  Level FlightAware ADS-B (EPLL / LCJ)
Fri 06:52:28 PM 36.8953 -112.7794 234° Southwest 408 470 40,000  Level FlightAware ADS-B (EPLL / LCJ)
Fri 06:53:07 PM 36.8514 -112.8523 233° Southwest 412 474 40,000  Level FlightAware ADS-B
Fri 06:54:11 PM 36.8080 -112.9239 233° Southwest 413 475 40,000  Level FlightAware ADS-B
Fri 06:55:14 PM 36.7045 -113.0933 233° Southwest 412 474 40,000  Level FlightAware ADS-B
Fri 06:56:14 PM 36.6354 -113.2053 233° Southwest 413 475 40,000  Level FlightAware ADS-B
Fri 06:56:44 PM 36.5999 -113.2630 233° Southwest 410 472 40,000  Level FlightAware ADS-B (EPLL / LCJ)
Fri 06:57:14 PM 36.5910 -113.2775 232° Southwest 414 476 40,000  Level FlightAware ADS-B
Fri 06:58:15 PM 36.4964 -113.4302 232° Southwest 412 474 40,000  Level FlightAware ADS-B
Fri 06:59:01 PM 36.4408 -113.5197 232° Southwest 405 466 40,000  Level FlightAware ADS-B (EPLL / LCJ)
Fri 06:59:40 PM 36.3955 -113.5921 232° Southwest 406 467 40,000  Level FlightAware ADS-B (EPLL / LCJ)
Fri 07:00:16 PM 36.3536 -113.6592 232° Southwest 413 475 40,000  Level FlightAware ADS-B
Fri 07:01:07 PM 36.2940 -113.7542 232° Southwest 418 481 40,000  Level FlightAware ADS-B (EPLL / LCJ)
Fri 07:01:44 PM 36.2489 -113.8261 232° Southwest 421 484 40,000  Level FlightAware ADS-B (EPLL / LCJ)
Fri 07:02:22 PM 36.2044 -113.8961 232° Southwest 421 484 40,000  Level FlightAware ADS-B (EPLL / LCJ)
Fri 07:03:10 PM 36.1469 -113.9871 232° Southwest 421 484 40,000  Level FlightAware ADS-B (EPLL / LCJ)
Fri 07:03:54 PM 36.0932 -114.0721 232° Southwest 421 484 40,000  Level FlightAware ADS-B (EPLL / LCJ)
Fri 07:04:36 PM 36.0436 -114.1500 232° Southwest 419 482 40,000  Level FlightAware ADS-B (EPLL / LCJ)
Fri 07:05:17 PM 35.9940 -114.2276 232° Southwest 415 478 40,000  Level FlightAware ADS-B (EPLL / LCJ)
Fri 07:05:59 PM 35.9450 -114.3042 232° Southwest 414 476 40,000  Level FlightAware ADS-B (EPLL / LCJ)
Fri 07:06:34 PM 35.9028 -114.3699 232° Southwest 415 478 40,000  Level FlightAware ADS-B (EPLL / LCJ)
Fri 07:07:21 PM 35.8467 -114.4575 232° Southwest 416 479 40,000  Level FlightAware ADS-B (EPLL / LCJ)
Fri 07:08:04 PM 35.7959 -114.5363 232° Southwest 416 479 40,000  Level FlightAware ADS-B (EPLL / LCJ)
Fri 07:08:43 PM 35.7485 -114.6096 231° Southwest 420 483 40,000  Level FlightAware ADS-B (EPLL / LCJ)
Fri 07:09:23 PM 35.7004 -114.6839 231° Southwest 420 483 40,000  Level FlightAware ADS-B (EPLL / LCJ)
Fri 07:10:10 PM 35.6439 -114.7709 231° Southwest 418 481 40,000  Level FlightAware ADS-B (EPLL / LCJ)
Fri 07:10:49 PM 35.5969 -114.8432 231° Southwest 418 481 40,000  Level FlightAware ADS-B (EPLL / LCJ)
Fri 07:11:33 PM 35.5435 -114.9249 231° Southwest 420 483 40,000  Level FlightAware ADS-B (EPLL / LCJ)
Fri 07:12:16 PM 35.4915 -115.0045 231° Southwest 416 479 40,000  Level FlightAware ADS-B (EPLL / LCJ)
Fri 07:12:55 PM 35.4438 -115.0773 231° Southwest 417 480 40,000  Level FlightAware ADS-B (EPLL / LCJ)
Fri 07:13:36 PM 35.3949 -115.1516 231° Southwest 410 472 40,000  Level FlightAware ADS-B (EPLL / LCJ)
Fri 07:14:21 PM 35.3422 -115.2318 231° Southwest 401 461 40,000 -286 Level FlightAware ADS-B (EPLL / LCJ)
Fri 07:15:00 PM 35.2965 -115.3012 231° Southwest 401 461 39,600 -805 Descending FlightAware ADS-B (EPLL / LCJ)
Fri 07:15:43 PM 35.2457 -115.3781 231° Southwest 405 466 38,900 -987 Descending FlightAware ADS-B (EPLL / LCJ)
Fri 07:16:19 PM 35.2034 -115.4416 231° Southwest 398 458 38,300 -1,013 Descending FlightAware ADS-B (EPLL / LCJ)
Fri 07:17:00 PM 35.1547 -115.5151 231° Southwest 399 459 37,600 -944 Descending FlightAware ADS-B (EPLL / LCJ)
Fri 07:17:48 PM 35.0986 -115.5995 231° Southwest 395 455 36,900 -913 Descending FlightAware ADS-B (EPLL / LCJ)
Fri 07:18:32 PM 35.0486 -115.6745 231° Southwest 393 452 36,200 -1,214 Descending FlightAware ADS-B (EPLL / LCJ)
Fri 07:19:12 PM 35.0014 -115.7454 231° Southwest 405 466 35,200 -1,308 Descending FlightAware ADS-B (EPLL / LCJ)
Fri 07:19:50 PM 34.9570 -115.8119 231° Southwest 405 466 34,500 -1,157 Descending FlightAware ADS-B (EPLL / LCJ)
Fri 07:20:35 PM 34.9041 -115.8907 231° Southwest 393 452 33,600 -1,171 Descending FlightAware ADS-B (EPLL / LCJ)
Fri 07:21:12 PM 34.8605 -115.9559 231° Southwest 392 451 32,900 -1,215 Descending FlightAware ADS-B (EPLL / LCJ)
Fri 07:21:54 PM 34.8126 -116.0273 231° Southwest 389 448 32,000 -1,373 Descending FlightAware ADS-B (EPLL / LCJ)
Fri 07:22:35 PM 34.7652 -116.0977 231° Southwest 390 449 31,000 -1,725 Descending FlightAware ADS-B (EPLL / LCJ)
Fri 07:23:14 PM 34.7202 -116.1646 231° Southwest 394 453 29,700 -2,080 Descending FlightAware ADS-B (EPLL / LCJ)
Fri 07:23:50 PM 34.6777 -116.2278 231° Southwest 406 467 28,400 -1,780 Descending FlightAware ADS-B (EPLL / LCJ)
Fri 07:24:45 PM 34.6112 -116.3260 231° Southwest 401 461 27,000 -866 Descending FlightAware ADS-B (EPLL / LCJ)
Fri 07:25:27 PM 34.5625 -116.3979 231° Southwest 387 445 27,000  Level FlightAware ADS-B (EPLL / LCJ)
Fri 07:25:44 PM 34.5433 -116.4264 231° Southwest 387 445 27,000  Level FlightAware ADS-B (EPLL / LCJ)
Fri 07:27:12 PM 34.4459 -116.5704 231° Southwest 394 453 27,000  Level FlightAware ADS-B
Fri 07:28:03 PM 34.3880 -116.6554 230° Southwest 396 456 27,000  Level FlightAware ADS-B
Fri 07:28:46 PM 34.3383 -116.7287 231° Southwest 398 458 27,000 -878 Level FlightAware ADS-B
Fri 07:29:25 PM 34.2895 -116.7999 230° Southwest 390 449 25,800 -2,308 Descending FlightAware ADS-B
Fri 07:30:04 PM 34.2475 -116.8617 231° Southwest 388 447 24,000 -2,846 Descending FlightAware ADS-B
Fri 07:30:43 PM 34.2020 -116.9285 231° Southwest 386 444 22,100 -2,854 Descending FlightAware ADS-B
Fri 07:31:26 PM 34.1531 -117.0002 231° Southwest 380 437 20,100 -2,268 Descending FlightAware ADS-B
Fri 07:32:05 PM 34.1127 -117.0595 231° Southwest 340 391 19,000 -1,154 Descending FlightAware ADS-B
Fri 07:32:44 PM 34.0811 -117.1187 237° Southwest 305 351 18,600 -769 Descending FlightAware ADS-B
Fri 07:33:23 PM 34.0544 -117.1781 242° Southwest 298 343 18,000 -1,031 Descending FlightAware ADS-B
Fri 07:33:48 PM 34.0396 -117.2167 245° Southwest 296 341 17,500 -1,000 Descending FlightAware ADS-B
Fri 07:34:23 PM 34.0317 -117.2722 260° West 298 343 17,000 -1,463 Descending FlightAware ADS-B
Fri 07:35:10 PM 34.0248 -117.3489 264° West 276 318 15,500 -1,663 Descending FlightAware ADS-B
Fri 07:35:46 PM 34.0200 -117.4021 264° West 268 308 14,700 -2,182 Descending FlightAware ADS-B
Fri 07:35:54 PM 34.0228 -117.3714 84° East 268 308 13,900 -1,385 Descending FlightAware ADS-B
Fri 07:36:25 PM 34.0147 -117.4583 264° West 267 307 13,800 -649 Descending FlightAware ADS-B
Fri 07:37:08 PM 34.0089 -117.5175 263° West 266 306 13,100 -923 Descending FlightAware ADS-B
Fri 07:37:43 PM 34.0037 -117.5723 263° West 272 313 12,600 -1,200 Descending FlightAware ADS-B
Fri 07:38:23 PM 33.9979 -117.6322 263° West 272 313 11,600 -1,595 Descending FlightAware ADS-B
Fri 07:39:02 PM 33.9921 -117.6924 263° West 269 310 10,500 -1,619 Descending FlightAware ADS-B
Fri 07:39:26 PM 33.9886 -117.7279 263° West 272 313 9,900 -1,600 Descending FlightAware ADS-B
Fri 07:39:47 PM 33.9857 -117.7594 264° West 273 314 9,300 -2,000 Descending FlightAware ADS-B
Fri 07:40:05 PM 33.9830 -117.7883 264° West 265 305 8,600 -1,543 Descending FlightAware ADS-B
Fri 07:40:22 PM 33.9809 -117.8093 263° West 245 282 8,400 -857 Descending FlightAware ADS-B
Fri 07:40:40 PM 33.9785 -117.8330 263° West 239 275 8,100 -1,167 Descending FlightAware ADS-B
Fri 07:40:58 PM 33.9761 -117.8581 263° West 236 272 7,700 -955 Descending FlightAware ADS-B
Fri 07:41:24 PM 33.9730 -117.8920 264° West 239 275 7,400 -1,000 Descending FlightAware ADS-B
Fri 07:41:46 PM 33.9704 -117.9188 263° West 241 277 6,900 -1,171 Descending FlightAware ADS-B
Fri 07:43:27 PM 33.9576 -118.0517 263° West 221 254 5,000 -1,029 Descending FlightAware ADS-B
Fri 07:44:06 PM 33.9524 -118.1001 263° West 214 246 4,500 -809 Descending FlightAware ADS-B
Fri 07:44:56 PM 33.9603 -118.1600 263° West 205 236 3,800 -911 Descending Los Angeles Center
Fri 07:45:58 PM 33.9525 -118.2222 261° West 194 223 2,800 -968 Descending Los Angeles Center
Fri 07:47:00 PM 33.9478 -118.2822 265° West 187 215 1,800 -919 Descending Los Angeles Center
Fri 07:48:02 PM 33.9422 -118.3406 263° West 157 181 900 -774 Descending Los Angeles Center
Fri 07:49:04 PM 33.9381 -118.3853 264° West 143 165 200 -677 Descending Los Angeles Center

Login

Don't have an account? Register now (free) for customized features, flight alerts, and more!